Time;durP1;ratioP1;P1;durP2;ratioP2;P2;SDS_P1;SDS_P2;PMS_P1;PMS_P2;Temp;Humidity;BMP_temperature;BMP_pressure;BME280_temperature;BME280_humidity;BME280_pressure;Samples;Min_cycle;Max_cycle;Signal;HPM_P1;HPM_P2
2023/11/09 00:02:37;;;;;;;10.27;7.95;;;;;;;;;;6313101;28;20465;-64
2023/11/09 00:05:39;;;;;;;10.38;7.68;;;;;;;;;;6311957;28;20059;-65
2023/11/09 00:08:43;;;;;;;9.32;7.22;;;;;;;;;;6312290;28;20052;-64
2023/11/09 00:11:46;;;;;;;12.55;8.23;;;;;;;;;;6310050;28;20052;-66
2023/11/09 00:14:49;;;;;;;8.48;6.63;;;;;;;;;;6312263;28;20055;-64
2023/11/09 00:17:51;;;;;;;11.73;8.25;;;;;;;;;;6311767;28;20056;-64
2023/11/09 00:20:53;;;;;;;10.35;6.93;;;;;;;;;;6311202;28;20633;-65
2023/11/09 00:23:55;;;;;;;10.80;6.88;;;;;;;;;;6312317;28;20112;-65
2023/11/09 00:26:58;;;;;;;10.20;6.32;;;;;;;;;;6311579;28;20461;-66
2023/11/09 00:30:00;;;;;;;12.10;8.00;;;;;;;;;;6311675;28;20216;-66
2023/11/09 00:33:03;;;;;;;10.75;8.00;;;;;;;;;;6311197;28;20056;-66
2023/11/09 00:36:05;;;;;;;9.90;7.22;;;;;;;;;;6300549;28;20469;-65
2023/11/09 00:39:11;;;;;;;12.20;6.55;;;;;;;;;;6311131;28;20682;-64
2023/11/09 00:42:15;;;;;;;9.63;6.85;;;;;;;;;;6311457;28;20044;-65
2023/11/09 00:45:17;;;;;;;10.00;7.05;;;;;;;;;;6303537;28;20043;-64
2023/11/09 00:48:19;;;;;;;11.18;7.97;;;;;;;;;;6299964;28;20047;-67
2023/11/09 00:51:21;;;;;;;10.23;8.57;;;;;;;;;;6311296;28;20048;-65
2023/11/09 00:54:25;;;;;;;14.10;10.05;;;;;;;;;;6335487;27;20040;-66
2023/11/09 00:57:31;;;;;;;12.27;8.80;;;;;;;;;;6311452;28;20044;-65
2023/11/09 01:00:33;;;;;;;16.00;10.73;;;;;;;;;;6305526;28;20044;-65
2023/11/09 01:03:35;;;;;;;14.20;8.70;;;;;;;;;;6312355;28;20120;-65
2023/11/09 01:06:37;;;;;;;12.18;8.38;;;;;;;;;;6311271;28;20052;-66
2023/11/09 01:09:40;;;;;;;9.73;6.78;;;;;;;;;;6300262;28;20052;-65
2023/11/09 01:12:42;;;;;;;12.18;7.43;;;;;;;;;;6293186;28;20091;-65
2023/11/09 01:15:44;;;;;;;9.23;7.00;;;;;;;;;;6298710;28;20050;-65
2023/11/09 01:18:47;;;;;;;10.82;7.68;;;;;;;;;;6309488;28;20048;-64
2023/11/09 01:21:49;;;;;;;13.85;8.00;;;;;;;;;;6300676;28;20135;-64
2023/11/09 01:24:51;;;;;;;10.07;6.95;;;;;;;;;;6311168;28;20189;-65
2023/11/09 01:27:53;;;;;;;10.95;7.93;;;;;;;;;;6311369;28;20091;-66
2023/11/09 01:30:55;;;;;;;11.68;7.90;;;;;;;;;;6311241;28;20194;-66
2023/11/09 01:33:58;;;;;;;12.75;9.13;;;;;;;;;;6310186;28;20080;-65
2023/11/09 01:37:11;;;;;;;9.88;6.95;;;;;;;;;;6310546;28;20053;-66
2023/11/09 01:40:13;;;;;;;14.07;9.13;;;;;;;;;;6310481;28;20737;-66
2023/11/09 01:43:15;;;;;;;11.10;8.07;;;;;;;;;;6311523;28;20044;-65
2023/11/09 01:46:17;;;;;;;12.25;8.27;;;;;;;;;;6311253;28;20047;-65
2023/11/09 01:49:20;;;;;;;13.40;9.55;;;;;;;;;;6309853;28;20036;-65
2023/11/09 01:52:22;;;;;;;16.70;8.75;;;;;;;;;;6304690;28;20049;-65
2023/11/09 01:55:26;;;;;;;12.55;7.72;;;;;;;;;;6296136;28;20052;-65
2023/11/09 01:58:28;;;;;;;12.05;8.40;;;;;;;;;;6305551;28;20531;-65
2023/11/09 02:01:32;;;;;;;14.32;9.15;;;;;;;;;;6309487;28;20660;-64
2023/11/09 02:04:34;;;;;;;13.35;9.43;;;;;;;;;;6292401;28;20782;-65
2023/11/09 02:07:37;;;;;;;12.88;9.70;;;;;;;;;;6264046;28;20044;-65
2023/11/09 02:10:39;;;;;;;13.77;9.70;;;;;;;;;;6314235;28;20048;-65
2023/11/09 02:13:41;;;;;;;12.43;8.52;;;;;;;;;;6314448;28;20740;-65
2023/11/09 02:16:45;;;;;;;14.68;9.45;;;;;;;;;;6291432;28;20139;-65
2023/11/09 02:19:49;;;;;;;14.07;8.32;;;;;;;;;;6285930;28;20044;-65
2023/11/09 02:22:55;;;;;;;11.43;8.38;;;;;;;;;;6297098;28;20052;-65
2023/11/09 02:25:57;;;;;;;12.75;8.40;;;;;;;;;;6276750;28;20549;-65
2023/11/09 02:28:59;;;;;;;13.02;8.57;;;;;;;;;;6313152;28;20055;-65
2023/11/09 02:32:01;;;;;;;12.68;8.55;;;;;;;;;;6304923;28;20099;-65
2023/11/09 02:35:04;;;;;;;11.77;8.50;;;;;;;;;;6275202;28;20178;-65
2023/11/09 02:38:06;;;;;;;11.73;8.73;;;;;;;;;;6289676;28;20543;-65
2023/11/09 02:41:08;;;;;;;11.65;8.40;;;;;;;;;;6306722;28;20052;-65
2023/11/09 02:44:10;;;;;;;11.98;7.68;;;;;;;;;;6314100;28;20067;-65
2023/11/09 02:47:13;;;;;;;11.88;7.50;;;;;;;;;;6298098;28;20096;-65
2023/11/09 02:50:15;;;;;;;13.30;8.90;;;;;;;;;;6301760;28;20063;-65
2023/11/09 02:53:17;;;;;;;14.27;8.52;;;;;;;;;;6302425;28;20067;-65
2023/11/09 02:56:20;;;;;;;13.48;8.38;;;;;;;;;;6314168;28;20127;-65
2023/11/09 02:59:22;;;;;;;11.88;8.48;;;;;;;;;;6314131;28;20040;-65
2023/11/09 03:02:24;;;;;;;11.82;8.52;;;;;;;;;;6313824;28;20053;-65
2023/11/09 03:05:27;;;;;;;13.07;7.72;;;;;;;;;;6312848;28;20055;-65
2023/11/09 03:08:31;;;;;;;11.32;7.68;;;;;;;;;;6313821;28;20686;-65
2023/11/09 03:11:33;;;;;;;11.60;7.60;;;;;;;;;;6313664;28;20052;-65
2023/11/09 03:14:36;;;;;;;11.57;7.72;;;;;;;;;;6313645;28;20078;-65
2023/11/09 03:17:41;;;;;;;10.50;7.90;;;;;;;;;;6312958;28;20044;-66
2023/11/09 03:20:44;;;;;;;12.80;7.70;;;;;;;;;;6313160;28;20760;-66
2023/11/09 03:23:49;;;;;;;11.38;7.28;;;;;;;;;;6312166;28;20162;-66
2023/11/09 03:26:51;;;;;;;14.48;8.55;;;;;;;;;;6313217;28;20051;-65
2023/11/09 03:29:53;;;;;;;11.73;8.20;;;;;;;;;;6303214;28;20036;-66
2023/11/09 03:32:55;;;;;;;11.45;7.72;;;;;;;;;;6299846;28;20462;-65
2023/11/09 03:35:57;;;;;;;12.70;7.90;;;;;;;;;;6312497;28;20067;-65
2023/11/09 03:38:59;;;;;;;12.50;8.35;;;;;;;;;;6312617;28;20065;-65
2023/11/09 03:42:01;;;;;;;10.82;7.07;;;;;;;;;;6308752;28;20058;-65
2023/11/09 03:45:03;;;;;;;10.15;7.47;;;;;;;;;;6309872;28;20048;-66
2023/11/09 03:48:06;;;;;;;11.25;6.68;;;;;;;;;;6312726;28;20047;-65
2023/11/09 03:51:08;;;;;;;9.65;6.65;;;;;;;;;;6312252;28;20056;-66
2023/11/09 03:54:10;;;;;;;8.68;6.80;;;;;;;;;;6311917;28;20047;-66
2023/11/09 03:57:12;;;;;;;9.88;7.30;;;;;;;;;;6302293;28;20051;-66
2023/11/09 04:00:17;;;;;;;9.50;6.60;;;;;;;;;;6309754;28;20040;-65
2023/11/09 04:03:19;;;;;;;12.68;8.23;;;;;;;;;;6320870;28;20121;-65
2023/11/09 04:06:21;;;;;;;13.60;8.63;;;;;;;;;;6312031;28;20051;-65
2023/11/09 04:09:24;;;;;;;14.80;6.78;;;;;;;;;;6311185;28;20116;-65
2023/11/09 04:12:26;;;;;;;8.75;6.25;;;;;;;;;;6297415;28;20078;-66
2023/11/09 04:15:29;;;;;;;10.52;7.82;;;;;;;;;;6312324;28;20056;-65
2023/11/09 04:18:33;;;;;;;10.00;6.22;;;;;;;;;;6312394;28;20047;-65
2023/11/09 04:21:35;;;;;;;9.07;7.00;;;;;;;;;;6300859;28;20056;-66
2023/11/09 04:24:37;;;;;;;16.55;7.93;;;;;;;;;;6312244;28;20048;-65
2023/11/09 04:27:39;;;;;;;10.93;7.30;;;;;;;;;;6311908;28;20713;-66
2023/11/09 04:30:41;;;;;;;10.88;7.43;;;;;;;;;;6311277;28;20571;-66
2023/11/09 04:33:43;;;;;;;18.92;7.78;;;;;;;;;;6311455;28;20059;-65
2023/11/09 04:36:49;;;;;;;12.55;8.48;;;;;;;;;;6311746;28;20143;-65
2023/11/09 04:39:57;;;;;;;14.38;8.13;;;;;;;;;;6311829;28;20036;-65
2023/11/09 04:43:01;;;;;;;14.00;7.65;;;;;;;;;;6311287;28;20495;-65
2023/11/09 04:46:10;;;;;;;12.23;8.30;;;;;;;;;;6309704;28;20446;-65
2023/11/09 04:49:13;;;;;;;11.77;7.85;;;;;;;;;;6311594;28;20048;-65
2023/11/09 04:52:16;;;;;;;12.55;8.23;;;;;;;;;;6303241;28;20052;-66
2023/11/09 04:55:31;;;;;;;15.40;9.05;;;;;;;;;;6311341;28;20040;-65
2023/11/09 04:59:01;;;;;;;11.32;6.75;;;;;;;;;;6302997;28;20040;-65
2023/11/09 05:08:44;;;;;;;11.52;8.27;;;;;;;;;;6299433;28;20103;-65
2023/11/09 05:11:47;;;;;;;11.90;8.02;;;;;;;;;;6310721;28;20048;-64
2023/11/09 05:14:49;;;;;;;10.68;8.10;;;;;;;;;;6314486;28;20089;-64
2023/11/09 05:17:51;;;;;;;10.82;6.90;;;;;;;;;;6310519;28;20056;-64
2023/11/09 05:20:53;;;;;;;13.32;8.43;;;;;;;;;;6310198;28;20044;-65
2023/11/09 05:23:55;;;;;;;10.13;7.25;;;;;;;;;;6308825;28;20085;-65
2023/11/09 05:26:57;;;;;;;9.80;6.90;;;;;;;;;;6307293;28;20139;-64
2023/11/09 05:29:59;;;;;;;11.05;8.43;;;;;;;;;;6305796;28;20072;-64
2023/11/09 05:33:01;;;;;;;14.02;7.95;;;;;;;;;;6305681;28;20442;-65
2023/11/09 05:36:07;;;;;;;25.17;12.57;;;;;;;;;;6308254;28;20403;-65
2023/11/09 05:39:10;;;;;;;28.65;13.02;;;;;;;;;;6309643;28;20182;-65
2023/11/09 05:42:12;;;;;;;20.05;12.18;;;;;;;;;;6312379;28;20052;-64
2023/11/09 05:45:15;;;;;;;19.55;11.60;;;;;;;;;;6310378;28;20063;-65
2023/11/09 05:48:17;;;;;;;26.00;13.98;;;;;;;;;;6313916;28;20051;-64
2023/11/09 05:51:23;;;;;;;22.63;14.10;;;;;;;;;;6306564;28;20594;-65
2023/11/09 05:54:25;;;;;;;36.45;15.75;;;;;;;;;;6311205;28;20052;-65
2023/11/09 05:57:27;;;;;;;29.58;14.35;;;;;;;;;;6301022;28;20098;-64
2023/11/09 06:00:30;;;;;;;16.85;8.85;;;;;;;;;;6296585;28;20055;-64
2023/11/09 06:03:32;;;;;;;18.77;10.25;;;;;;;;;;6314320;28;20438;-64
2023/11/09 06:06:34;;;;;;;48.92;13.55;;;;;;;;;;6313836;28;20052;-64
2023/11/09 06:09:39;;;;;;;86.47;19.20;;;;;;;;;;6318191;28;20036;-65
2023/11/09 06:12:41;;;;;;;72.43;12.20;;;;;;;;;;6313851;28;20070;-65
2023/11/09 06:15:43;;;;;;;90.18;11.68;;;;;;;;;;6314754;28;20868;-64
2023/11/09 06:18:46;;;;;;;99.68;13.70;;;;;;;;;;6313768;28;20054;-65
2023/11/09 06:21:51;;;;;;;72.15;12.27;;;;;;;;;;6312948;28;20082;-64
2023/11/09 06:24:53;;;;;;;75.68;12.57;;;;;;;;;;6314698;28;20055;-64
2023/11/09 06:27:56;;;;;;;80.15;13.38;;;;;;;;;;6300166;28;20055;-64
2023/11/09 06:30:58;;;;;;;50.60;12.05;;;;;;;;;;6317249;28;20032;-65
2023/11/09 06:34:00;;;;;;;41.60;11.40;;;;;;;;;;6313058;28;20044;-65
2023/11/09 06:37:02;;;;;;;57.50;13.20;;;;;;;;;;6287343;28;20482;-65
2023/11/09 06:40:10;;;;;;;66.35;12.75;;;;;;;;;;6311848;28;20120;-65
2023/11/09 06:43:13;;;;;;;74.80;11.73;;;;;;;;;;6312171;28;20043;-65
2023/11/09 06:46:15;;;;;;;63.70;11.73;;;;;;;;;;6309231;28;20125;-65
2023/11/09 06:49:17;;;;;;;36.17;12.32;;;;;;;;;;6309436;28;20040;-65
2023/11/09 06:52:19;;;;;;;50.45;12.52;;;;;;;;;;6304545;28;20047;-65
2023/11/09 06:55:24;;;;;;;60.25;13.15;;;;;;;;;;6312944;28;20249;-66
2023/11/09 06:58:26;;;;;;;43.20;10.30;;;;;;;;;;6313530;28;20725;-66
2023/11/09 07:01:31;;;;;;;30.83;9.63;;;;;;;;;;6310183;28;20180;-66
2023/11/09 07:04:33;;;;;;;19.33;9.15;;;;;;;;;;6313013;28;20048;-66
2023/11/09 07:07:38;;;;;;;15.68;8.90;;;;;;;;;;6306080;28;20079;-66
2023/11/09 07:10:40;;;;;;;12.05;5.93;;;;;;;;;;6312772;28;20040;-65
2023/11/09 07:13:43;;;;;;;18.67;8.77;;;;;;;;;;6313204;28;20493;-66
2023/11/09 07:16:45;;;;;;;19.90;8.35;;;;;;;;;;6295256;28;20447;-65
2023/11/09 07:19:49;;;;;;;14.70;9.70;;;;;;;;;;6312381;28;20526;-65
2023/11/09 07:22:56;;;;;;;15.73;9.15;;;;;;;;;;6311152;28;20048;-66
2023/11/09 07:25:58;;;;;;;17.00;10.32;;;;;;;;;;6311461;28;21386;-66
2023/11/09 07:29:00;;;;;;;15.25;9.85;;;;;;;;;;6312094;28;20122;-65
2023/11/09 07:32:03;;;;;;;13.40;9.45;;;;;;;;;;6294388;28;20454;-66
2023/11/09 07:35:08;;;;;;;15.90;10.60;;;;;;;;;;6310769;28;20075;-65
2023/11/09 07:38:14;;;;;;;14.77;9.05;;;;;;;;;;6312688;28;20048;-65
2023/11/09 07:41:16;;;;;;;12.23;8.57;;;;;;;;;;6313050;28;20052;-66
2023/11/09 07:44:18;;;;;;;12.20;9.25;;;;;;;;;;6307422;28;20055;-65
2023/11/09 07:47:20;;;;;;;14.95;7.63;;;;;;;;;;6312587;28;20044;-65
2023/11/09 07:50:23;;;;;;;12.43;9.15;;;;;;;;;;6312923;28;20071;-65
2023/11/09 07:53:25;;;;;;;13.70;9.20;;;;;;;;;;6301448;28;20043;-65
2023/11/09 07:56:27;;;;;;;12.32;8.35;;;;;;;;;;6294679;28;20052;-65
2023/11/09 07:59:29;;;;;;;10.13;7.38;;;;;;;;;;6314764;28;20442;-65
2023/11/09 08:02:31;;;;;;;10.52;7.93;;;;;;;;;;6312295;28;20044;-65
2023/11/09 08:05:40;;;;;;;9.82;7.35;;;;;;;;;;6311951;28;20048;-65
2023/11/09 08:08:44;;;;;;;11.50;7.75;;;;;;;;;;6312164;28;20055;-65
2023/11/09 08:11:47;;;;;;;11.25;9.40;;;;;;;;;;6312719;28;20593;-65
2023/11/09 08:14:49;;;;;;;12.20;7.70;;;;;;;;;;6312679;28;20139;-66
2023/11/09 08:17:51;;;;;;;10.77;7.93;;;;;;;;;;6312119;28;20284;-66
2023/11/09 08:20:53;;;;;;;11.60;9.55;;;;;;;;;;6312567;28;20125;-66
2023/11/09 08:23:56;;;;;;;9.93;7.28;;;;;;;;;;6306030;28;20151;-66
2023/11/09 08:26:58;;;;;;;10.63;6.80;;;;;;;;;;6304173;28;20624;-66
2023/11/09 08:30:00;;;;;;;12.20;7.97;;;;;;;;;;6302829;28;20036;-66
2023/11/09 08:33:05;;;;;;;16.08;7.72;;;;;;;;;;6302265;28;20127;-66
2023/11/09 08:36:10;;;;;;;16.58;10.98;;;;;;;;;;6302111;28;20126;-67
2023/11/09 08:39:18;;;;;;;11.73;7.80;;;;;;;;;;6290920;28;20055;-67
2023/11/09 08:42:21;;;;;;;12.40;8.57;;;;;;;;;;6308495;28;20073;-66
2023/11/09 08:45:28;;;;;;;15.43;10.50;;;;;;;;;;6310604;28;20052;-66
2023/11/09 08:48:32;;;;;;;20.42;11.88;;;;;;;;;;6308967;28;20096;-66
2023/11/09 08:51:34;;;;;;;10.48;8.52;;;;;;;;;;6311111;28;20039;-66
2023/11/09 08:54:37;;;;;;;10.45;8.10;;;;;;;;;;6310089;28;20562;-66
2023/11/09 08:57:39;;;;;;;12.23;7.80;;;;;;;;;;6310456;28;20066;-66
2023/11/09 09:00:41;;;;;;;9.18;6.75;;;;;;;;;;6310038;28;20527;-67
2023/11/09 09:03:50;;;;;;;8.88;6.57;;;;;;;;;;6309461;28;20144;-66
2023/11/09 09:06:54;;;;;;;10.10;8.10;;;;;;;;;;6299233;28;20052;-66
2023/11/09 09:09:56;;;;;;;10.77;7.10;;;;;;;;;;6316911;28;20522;-66
2023/11/09 09:13:02;;;;;;;9.65;6.28;;;;;;;;;;6308081;28;20052;-66
2023/11/09 09:16:06;;;;;;;10.13;7.75;;;;;;;;;;6308478;28;20063;-65
2023/11/09 09:19:08;;;;;;;9.18;7.15;;;;;;;;;;6308479;28;20047;-66
2023/11/09 09:22:11;;;;;;;7.97;4.93;;;;;;;;;;6308195;28;20048;-65
2023/11/09 09:25:14;;;;;;;7.20;4.90;;;;;;;;;;6310854;28;20048;-65
2023/11/09 09:28:19;;;;;;;9.30;7.28;;;;;;;;;;6309854;28;20051;-65
2023/11/09 09:31:23;;;;;;;10.80;4.82;;;;;;;;;;6310647;28;20028;-65
2023/11/09 09:34:29;;;;;;;6.03;4.60;;;;;;;;;;6310148;28;20173;-66
2023/11/09 09:37:32;;;;;;;4.82;4.05;;;;;;;;;;6310353;28;20446;-65
2023/11/09 09:40:36;;;;;;;7.70;4.88;;;;;;;;;;6306135;28;20047;-64
2023/11/09 09:43:51;;;;;;;9.48;4.55;;;;;;;;;;6305106;28;20051;-65
2023/11/09 09:46:55;;;;;;;8.20;4.13;;;;;;;;;;6288766;28;20051;-65
2023/11/09 09:49:59;;;;;;;8.23;5.72;;;;;;;;;;6300921;28;20044;-65
2023/11/09 09:53:02;;;;;;;7.60;4.95;;;;;;;;;;6287965;28;20062;-65
2023/11/09 09:56:05;;;;;;;7.63;4.18;;;;;;;;;;6306831;28;20830;-65
2023/11/09 09:59:09;;;;;;;6.55;5.15;;;;;;;;;;6290352;28;20044;-65
2023/11/09 10:02:13;;;;;;;6.60;4.45;;;;;;;;;;6300275;28;20075;-65
2023/11/09 10:05:15;;;;;;;6.95;4.10;;;;;;;;;;6308961;28;20593;-65
2023/11/09 10:08:17;;;;;;;4.85;4.10;;;;;;;;;;6295735;28;20115;-64
2023/11/09 10:11:20;;;;;;;6.80;4.65;;;;;;;;;;6299039;28;20430;-65
2023/11/09 10:14:24;;;;;;;6.55;4.75;;;;;;;;;;6309745;28;20116;-65
2023/11/09 10:17:26;;;;;;;6.75;4.70;;;;;;;;;;6309467;28;20549;-65
2023/11/09 10:20:28;;;;;;;5.32;3.83;;;;;;;;;;6309898;28;20050;-65
2023/11/09 10:23:30;;;;;;;7.45;4.07;;;;;;;;;;6310160;28;20051;-65
2023/11/09 10:26:44;;;;;;;8.90;4.57;;;;;;;;;;6309814;28;20059;-64
2023/11/09 10:29:48;;;;;;;5.78;3.72;;;;;;;;;;6313409;28;20032;-65
2023/11/09 10:33:00;;;;;;;6.00;3.72;;;;;;;;;;6314976;28;20082;-65
2023/11/09 10:36:04;;;;;;;7.30;4.80;;;;;;;;;;6313117;28;20054;-65
2023/11/09 10:39:18;;;;;;;4.45;2.83;;;;;;;;;;6310516;28;20624;-65
2023/11/09 10:42:24;;;;;;;5.22;3.30;;;;;;;;;;6309498;28;20055;-65
2023/11/09 10:45:36;;;;;;;6.63;3.33;;;;;;;;;;6312417;28;20525;-65
2023/11/09 10:48:44;;;;;;;5.20;2.55;;;;;;;;;;6312210;28;20048;-65
2023/11/09 10:51:54;;;;;;;4.35;2.50;;;;;;;;;;6302436;28;20448;-64
2023/11/09 10:54:56;;;;;;;4.80;2.05;;;;;;;;;;6304392;28;20086;-65
2023/11/09 10:58:05;;;;;;;5.28;3.08;;;;;;;;;;6286770;28;20102;-65
2023/11/09 11:01:10;;;;;;;4.68;1.95;;;;;;;;;;6301092;28;20112;-65
2023/11/09 11:04:14;;;;;;;5.15;2.13;;;;;;;;;;6305731;28;20048;-65
2023/11/09 11:07:27;;;;;;;3.90;2.78;;;;;;;;;;6317708;28;20470;-65
2023/11/09 11:10:46;;;;;;;3.00;1.98;;;;;;;;;;6290594;28;20059;-65
2023/11/09 11:13:57;;;;;;;5.07;2.45;;;;;;;;;;6312702;28;20576;-65
2023/11/09 11:17:33;;;;;;;4.03;2.55;;;;;;;;;;6296306;28;20590;-65
2023/11/09 11:20:51;;;;;;;5.05;4.05;;;;;;;;;;6303380;28;20182;-65
2023/11/09 11:24:32;;;;;;;6.13;3.58;;;;;;;;;;6295106;28;20059;-65
2023/11/09 11:27:34;;;;;;;7.70;3.97;;;;;;;;;;6266585;28;20040;-64
2023/11/09 11:30:39;;;;;;;3.67;2.40;;;;;;;;;;6303557;28;20147;-65
2023/11/09 11:33:41;;;;;;;;;;;;;;;;;;6308012;28;20048;-65
2023/11/09 11:36:47;;;;;;;6.78;3.03;;;;;;;;;;6303516;28;19958;-65
2023/11/09 11:39:49;;;;;;;4.32;2.72;;;;;;;;;;6301117;28;20174;-66
2023/11/09 11:42:56;;;;;;;4.63;3.60;;;;;;;;;;6312420;28;20100;-65
2023/11/09 11:45:58;;;;;;;6.13;3.78;;;;;;;;;;6310834;28;20450;-65
2023/11/09 11:49:00;;;;;;;6.30;3.42;;;;;;;;;;6313332;28;20054;-65
2023/11/09 11:52:02;;;;;;;7.13;2.85;;;;;;;;;;6312414;28;20048;-65
2023/11/09 11:55:10;;;;;;;5.10;2.80;;;;;;;;;;6308750;28;20135;-65
2023/11/09 11:58:13;;;;;;;6.40;2.90;;;;;;;;;;6303537;28;20063;-66
2023/11/09 12:01:20;;;;;;;5.50;3.10;;;;;;;;;;6304785;28;20058;-65
2023/11/09 12:04:35;;;;;;;6.18;3.78;;;;;;;;;;6304057;28;20059;-65
2023/11/09 12:07:40;;;;;;;4.88;3.22;;;;;;;;;;6292388;28;20055;-65
2023/11/09 12:10:42;;;;;;;8.98;5.25;;;;;;;;;;6288891;28;20637;-66
2023/11/09 12:13:46;;;;;;;7.57;3.55;;;;;;;;;;6278479;28;20048;-64
2023/11/09 12:16:49;;;;;;;5.55;3.67;;;;;;;;;;6302381;28;20630;-64
2023/11/09 12:19:51;;;;;;;5.20;3.22;;;;;;;;;;6308695;28;20759;-64
2023/11/09 12:22:55;;;;;;;6.05;3.83;;;;;;;;;;6309023;28;20048;-64
2023/11/09 12:25:58;;;;;;;4.55;3.17;;;;;;;;;;6309084;28;20075;-64
2023/11/09 12:29:00;;;;;;;10.32;3.75;;;;;;;;;;6309404;28;20048;-64
2023/11/09 12:32:02;;;;;;;4.18;2.95;;;;;;;;;;6310518;28;20105;-65
2023/11/09 12:35:13;;;;;;;5.65;2.63;;;;;;;;;;6304096;28;20093;-64
2023/11/09 12:38:15;;;;;;;5.55;3.08;;;;;;;;;;6310040;28;20078;-64
2023/11/09 12:41:24;;;;;;;5.47;3.70;;;;;;;;;;6309117;28;20108;-65
2023/11/09 12:44:29;;;;;;;6.68;3.22;;;;;;;;;;6304463;28;20044;-65
2023/11/09 12:47:32;;;;;;;5.10;3.55;;;;;;;;;;6311002;28;20125;-65
2023/11/09 12:50:35;;;;;;;5.18;2.78;;;;;;;;;;6305880;28;20352;-64
2023/11/09 12:53:38;;;;;;;7.88;3.05;;;;;;;;;;6306950;28;20059;-64
2023/11/09 12:56:41;;;;;;;5.35;2.50;;;;;;;;;;6307987;28;20044;-64
2023/11/09 12:59:45;;;;;;;4.82;2.25;;;;;;;;;;6309153;28;20093;-65
2023/11/09 13:02:47;;;;;;;9.02;2.20;;;;;;;;;;6309243;28;20040;-64
2023/11/09 13:05:50;;;;;;;3.22;2.00;;;;;;;;;;6303310;28;20059;-65
2023/11/09 13:09:15;;;;;;;6.00;1.90;;;;;;;;;;6304433;28;20055;-65
2023/11/09 13:12:32;;;;;;;4.95;1.75;;;;;;;;;;6304685;28;20097;-65
2023/11/09 13:15:38;;;;;;;3.75;1.50;;;;;;;;;;6307304;28;20063;-65
2023/11/09 13:18:41;;;;;;;7.80;2.28;;;;;;;;;;6310470;28;20583;-65
2023/11/09 13:21:43;;;;;;;3.78;1.83;;;;;;;;;;6310736;28;20059;-65
2023/11/09 13:24:53;;;;;;;3.25;1.50;;;;;;;;;;6287249;28;20052;-65
2023/11/09 13:27:56;;;;;;;4.40;1.83;;;;;;;;;;6309521;28;20051;-65
2023/11/09 13:31:05;;;;;;;4.65;2.08;;;;;;;;;;6307454;28;20044;-65
2023/11/09 13:34:10;;;;;;;4.30;2.05;;;;;;;;;;6308341;28;20059;-65
2023/11/09 13:37:26;;;;;;;3.50;1.65;;;;;;;;;;6310353;28;20055;-66
2023/11/09 13:43:34;;;;;;;4.13;1.33;;;;;;;;;;6309260;28;20048;-65
2023/11/09 13:46:39;;;;;;;3.95;2.00;;;;;;;;;;6305937;28;20048;-65
2023/11/09 13:49:43;;;;;;;4.35;1.27;;;;;;;;;;6300757;28;20482;-65
2023/11/09 13:52:51;;;;;;;2.80;1.23;;;;;;;;;;6310491;28;20113;-65
2023/11/09 13:56:21;;;;;;;4.82;1.75;;;;;;;;;;6309422;28;20637;-65
2023/11/09 13:59:15;;;;;;;3.70;2.00;;;;;;;;;;6303736;28;20036;-65
2023/11/09 14:02:17;;;;;;;3.53;1.58;;;;;;;;;;6308632;28;20574;-64
2023/11/09 14:05:22;;;;;;;4.70;1.40;;;;;;;;;;6311208;28;20040;-64
2023/11/09 14:08:27;;;;;;;4.47;1.98;;;;;;;;;;6311543;28;20180;-65
2023/11/09 14:11:29;;;;;;;4.00;1.88;;;;;;;;;;6312314;28;20044;-65
2023/11/09 14:14:31;;;;;;;3.85;2.00;;;;;;;;;;6314630;28;20051;-65
2023/11/09 14:17:34;;;;;;;4.25;2.00;;;;;;;;;;6314887;28;20056;-65
2023/11/09 14:20:41;;;;;;;7.10;2.38;;;;;;;;;;6314220;28;20127;-65
2023/11/09 14:23:45;;;;;;;8.10;2.33;;;;;;;;;;6314505;28;20150;-65
2023/11/09 14:26:48;;;;;;;3.40;1.58;;;;;;;;;;6314244;28;20052;-65
2023/11/09 14:29:51;;;;;;;2.83;2.10;;;;;;;;;;6313406;28;20052;-64
2023/11/09 14:32:54;;;;;;;3.10;1.65;;;;;;;;;;6311506;28;20601;-64
2023/11/09 14:35:58;;;;;;;6.30;1.48;;;;;;;;;;6296451;28;20075;-64
2023/11/09 14:39:01;;;;;;;15.77;14.57;;;;;;;;;;6311147;28;20220;-64
2023/11/09 14:42:07;;;;;;;6.55;5.85;;;;;;;;;;6312500;28;20755;-64
2023/11/09 14:45:09;;;;;;;30.73;28.38;;;;;;;;;;6302035;28;20045;-65
2023/11/09 14:48:17;;;;;;;19.45;17.75;;;;;;;;;;6309077;28;20043;-65
2023/11/09 14:51:26;;;;;;;9.55;8.55;;;;;;;;;;6313844;28;20055;-65
2023/11/09 14:54:31;;;;;;;5.25;4.30;;;;;;;;;;6313136;28;20266;-64
2023/11/09 14:57:32;;;;;;;5.90;3.75;;;;;;;;;;6308130;28;20044;-64
2023/11/09 15:00:36;;;;;;;8.05;3.63;;;;;;;;;;6276986;28;20037;-64
2023/11/09 15:03:41;;;;;;;6.47;4.20;;;;;;;;;;6312341;28;20055;-64
2023/11/09 15:06:43;;;;;;;4.97;2.20;;;;;;;;;;6311843;28;20185;-64
2023/11/09 15:09:49;;;;;;;5.90;2.85;;;;;;;;;;6307948;28;20062;-64
2023/11/09 15:12:54;;;;;;;7.90;2.97;;;;;;;;;;6296042;28;20070;-64
2023/11/09 15:16:08;;;;;;;7.88;4.95;;;;;;;;;;6312956;28;20063;-64
2023/11/09 15:19:12;;;;;;;8.30;4.70;;;;;;;;;;6312691;28;20044;-65
2023/11/09 15:22:16;;;;;;;14.07;5.40;;;;;;;;;;6308200;28;20767;-65
2023/11/09 15:25:18;;;;;;;14.93;5.72;;;;;;;;;;6308688;28;20520;-65
2023/11/09 15:28:21;;;;;;;10.40;5.30;;;;;;;;;;6303663;28;20063;-64
2023/11/09 15:31:24;;;;;;;12.48;7.13;;;;;;;;;;6307698;28;20036;-65
2023/11/09 15:34:26;;;;;;;14.85;10.48;;;;;;;;;;6312374;28;20044;-65
2023/11/09 15:37:29;;;;;;;16.00;6.82;;;;;;;;;;6302347;28;20197;-65
2023/11/09 15:40:32;;;;;;;7.82;5.07;;;;;;;;;;6311636;28;20442;-64
2023/11/09 15:43:54;;;;;;;9.27;3.13;;;;;;;;;;6309232;28;20081;-64
2023/11/09 15:46:57;;;;;;;6.00;4.40;;;;;;;;;;6307019;28;20051;-64
2023/11/09 15:50:01;;;;;;;9.07;5.65;;;;;;;;;;6303366;28;20051;-65
2023/11/09 15:53:07;;;;;;;11.02;4.93;;;;;;;;;;6301034;28;20079;-65
2023/11/09 15:56:11;;;;;;;12.02;6.95;;;;;;;;;;6302550;28;20044;-65
2023/11/09 15:59:15;;;;;;;16.30;9.10;;;;;;;;;;6308795;28;20058;-65
2023/11/09 16:02:20;;;;;;;15.35;12.82;;;;;;;;;;6309868;28;20051;-65
2023/11/09 16:05:23;;;;;;;14.77;9.75;;;;;;;;;;6309843;28;20549;-65
2023/11/09 16:08:25;;;;;;;13.20;9.95;;;;;;;;;;6311421;28;20522;-66
2023/11/09 16:11:28;;;;;;;16.30;9.02;;;;;;;;;;6308063;28;20063;-64
2023/11/09 16:14:33;;;;;;;15.35;12.73;;;;;;;;;;6302569;28;20047;-65
2023/11/09 16:17:36;;;;;;;13.18;11.85;;;;;;;;;;6299010;28;20055;-65
2023/11/09 16:20:40;;;;;;;13.70;11.43;;;;;;;;;;6310609;28;20047;-65
2023/11/09 16:23:45;;;;;;;10.30;8.30;;;;;;;;;;6310715;28;20052;-65
2023/11/09 16:26:55;;;;;;;14.80;12.27;;;;;;;;;;6309025;28;20056;-65
2023/11/09 16:29:59;;;;;;;11.20;9.35;;;;;;;;;;6310062;28;20048;-65
2023/11/09 16:33:01;;;;;;;14.85;10.38;;;;;;;;;;6309493;28;20040;-65
2023/11/09 16:36:21;;;;;;;21.23;13.73;;;;;;;;;;6308477;28;21011;-65
2023/11/09 16:39:23;;;;;;;27.13;13.57;;;;;;;;;;6276940;28;20047;-64
2023/11/09 16:42:26;;;;;;;25.20;14.27;;;;;;;;;;6292059;28;20040;-65
2023/11/09 16:45:28;;;;;;;15.85;8.77;;;;;;;;;;6309714;28;20760;-65
2023/11/09 16:48:33;;;;;;;10.50;7.18;;;;;;;;;;6311077;28;20064;-65
2023/11/09 16:51:35;;;;;;;10.10;5.65;;;;;;;;;;6311055;28;20063;-65
2023/11/09 16:54:39;;;;;;;10.63;5.18;;;;;;;;;;6311464;28;20056;-66
2023/11/09 16:57:44;;;;;;;10.98;5.80;;;;;;;;;;6311204;28;20123;-65
2023/11/09 17:00:47;;;;;;;20.98;11.40;;;;;;;;;;6311203;28;20104;-65
2023/11/09 17:03:49;;;;;;;24.00;13.18;;;;;;;;;;6311271;28;20043;-65
2023/11/09 17:06:52;;;;;;;11.38;7.13;;;;;;;;;;6310976;28;20048;-65
2023/11/09 17:09:54;;;;;;;10.40;5.65;;;;;;;;;;6295326;28;20055;-66
2023/11/09 17:12:56;;;;;;;12.73;6.18;;;;;;;;;;6300059;28;20076;-64
2023/11/09 17:15:58;;;;;;;13.48;6.05;;;;;;;;;;6310947;28;20498;-65
2023/11/09 17:19:01;;;;;;;10.68;6.32;;;;;;;;;;6303388;28;20056;-66
2023/11/09 17:22:04;;;;;;;14.18;8.38;;;;;;;;;;6310719;28;20502;-65
2023/11/09 17:25:07;;;;;;;17.60;8.10;;;;;;;;;;6309953;28;20589;-65
2023/11/09 17:28:10;;;;;;;26.80;8.85;;;;;;;;;;6309711;28;20075;-65
2023/11/09 17:31:12;;;;;;;15.48;7.93;;;;;;;;;;6309793;28;20043;-65
2023/11/09 17:34:19;;;;;;;13.10;6.90;;;;;;;;;;6309665;28;20048;-65
2023/11/09 17:37:21;;;;;;;11.60;5.22;;;;;;;;;;6309568;28;20127;-65
2023/11/09 17:40:24;;;;;;;8.90;4.60;;;;;;;;;;6293346;28;20052;-65
2023/11/09 17:43:26;;;;;;;5.40;3.85;;;;;;;;;;6309701;28;20099;-65
2023/11/09 17:46:30;;;;;;;8.02;3.80;;;;;;;;;;6310905;28;20063;-66
2023/11/09 17:49:41;;;;;;;4.35;2.63;;;;;;;;;;6308940;28;20046;-66
2023/11/09 17:52:48;;;;;;;3.88;2.30;;;;;;;;;;6300944;28;20048;-65
2023/11/09 17:55:50;;;;;;;3.38;2.58;;;;;;;;;;6308637;28;20082;-66
2023/11/09 17:58:54;;;;;;;4.63;2.88;;;;;;;;;;6293074;28;20059;-66
2023/11/09 18:01:56;;;;;;;4.30;2.53;;;;;;;;;;6306132;28;20048;-66
2023/11/09 18:04:59;;;;;;;3.65;2.65;;;;;;;;;;6304952;28;20162;-68
2023/11/09 18:08:01;;;;;;;5.05;2.83;;;;;;;;;;6299302;28;20052;-69
2023/11/09 18:11:05;;;;;;;28.30;14.90;;;;;;;;;;6296774;28;20095;-66
2023/11/09 18:14:09;;;;;;;6.95;4.20;;;;;;;;;;6296757;28;20586;-65
2023/11/09 18:17:12;;;;;;;3.30;2.90;;;;;;;;;;6303510;28;20056;-66
2023/11/09 18:20:15;;;;;;;3.95;2.50;;;;;;;;;;6297712;28;20059;-65
2023/11/09 18:23:18;;;;;;;4.63;2.17;;;;;;;;;;6306698;28;20096;-65